sensor_id;sensor_type;location;lat;lon;timestamp;P1;durP1;ratioP1;P2;durP2;ratioP2
4434;SDS011;46552;52.150;8.428;2022-12-18T00:01:17;83.77;;;40.40;;
4434;SDS011;46552;52.150;8.428;2022-12-18T00:03:45;91.70;;;38.47;;
4434;SDS011;46552;52.150;8.428;2022-12-18T00:06:13;90.73;;;40.00;;
4434;SDS011;46552;52.150;8.428;2022-12-18T00:08:40;96.43;;;43.10;;
4434;SDS011;46552;52.150;8.428;2022-12-18T00:11:08;104.93;;;45.47;;
4434;SDS011;46552;52.150;8.428;2022-12-18T00:13:37;101.87;;;43.17;;
4434;SDS011;46552;52.150;8.428;2022-12-18T00:16:06;97.20;;;42.53;;
4434;SDS011;46552;52.150;8.428;2022-12-18T00:18:38;79.23;;;38.37;;
4434;SDS011;46552;52.150;8.428;2022-12-18T00:21:06;70.40;;;38.37;;
4434;SDS011;46552;52.150;8.428;2022-12-18T00:23:36;87.93;;;37.90;;
4434;SDS011;46552;52.150;8.428;2022-12-18T00:26:04;83.90;;;38.03;;
4434;SDS011;46552;52.150;8.428;2022-12-18T00:28:33;81.97;;;39.30;;
4434;SDS011;46552;52.150;8.428;2022-12-18T00:31:02;68.83;;;35.40;;
4434;SDS011;46552;52.150;8.428;2022-12-18T00:33:30;78.80;;;37.50;;
4434;SDS011;46552;52.150;8.428;2022-12-18T00:36:01;76.47;;;37.53;;
4434;SDS011;46552;52.150;8.428;2022-12-18T00:38:29;77.50;;;37.07;;
4434;SDS011;46552;52.150;8.428;2022-12-18T00:40:56;75.37;;;34.63;;
4434;SDS011;46552;52.150;8.428;2022-12-18T00:43:24;83.73;;;34.90;;
4434;SDS011;46552;52.150;8.428;2022-12-18T00:45:50;77.00;;;34.03;;
4434;SDS011;46552;52.150;8.428;2022-12-18T00:48:18;79.67;;;36.60;;
4434;SDS011;46552;52.150;8.428;2022-12-18T00:50:47;78.43;;;34.20;;
4434;SDS011;46552;52.150;8.428;2022-12-18T00:53:17;70.97;;;33.60;;
4434;SDS011;46552;52.150;8.428;2022-12-18T00:55:44;76.73;;;34.97;;
4434;SDS011;46552;52.150;8.428;2022-12-18T00:58:12;79.20;;;34.30;;
4434;SDS011;46552;52.150;8.428;2022-12-18T01:00:41;71.10;;;33.43;;
4434;SDS011;46552;52.150;8.428;2022-12-18T01:03:09;77.20;;;33.80;;
4434;SDS011;46552;52.150;8.428;2022-12-18T01:05:39;73.23;;;34.87;;
4434;SDS011;46552;52.150;8.428;2022-12-18T01:08:06;76.13;;;33.70;;
4434;SDS011;46552;52.150;8.428;2022-12-18T01:10:36;82.83;;;32.90;;
4434;SDS011;46552;52.150;8.428;2022-12-18T01:13:06;89.80;;;34.63;;
4434;SDS011;46552;52.150;8.428;2022-12-18T01:15:34;68.30;;;32.80;;
4434;SDS011;46552;52.150;8.428;2022-12-18T01:18:01;73.77;;;34.53;;
4434;SDS011;46552;52.150;8.428;2022-12-18T01:20:28;74.57;;;31.20;;
4434;SDS011;46552;52.150;8.428;2022-12-18T01:22:55;72.33;;;31.60;;
4434;SDS011;46552;52.150;8.428;2022-12-18T01:25:22;68.80;;;33.97;;
4434;SDS011;46552;52.150;8.428;2022-12-18T01:27:53;72.93;;;31.87;;
4434;SDS011;46552;52.150;8.428;2022-12-18T01:30:20;68.57;;;32.23;;
4434;SDS011;46552;52.150;8.428;2022-12-18T01:32:47;63.40;;;30.70;;
4434;SDS011;46552;52.150;8.428;2022-12-18T01:35:14;67.73;;;32.47;;
4434;SDS011;46552;52.150;8.428;2022-12-18T01:37:42;73.60;;;33.30;;
4434;SDS011;46552;52.150;8.428;2022-12-18T01:40:09;72.70;;;32.60;;
4434;SDS011;46552;52.150;8.428;2022-12-18T01:42:36;66.77;;;33.20;;
4434;SDS011;46552;52.150;8.428;2022-12-18T01:45:08;66.07;;;32.07;;
4434;SDS011;46552;52.150;8.428;2022-12-18T01:47:51;64.87;;;29.87;;
4434;SDS011;46552;52.150;8.428;2022-12-18T01:50:21;75.10;;;32.27;;
4434;SDS011;46552;52.150;8.428;2022-12-18T01:52:51;69.70;;;32.13;;
4434;SDS011;46552;52.150;8.428;2022-12-18T01:55:22;59.37;;;30.97;;
4434;SDS011;46552;52.150;8.428;2022-12-18T01:57:51;59.83;;;31.73;;
4434;SDS011;46552;52.150;8.428;2022-12-18T02:00:22;73.20;;;30.73;;
4434;SDS011;46552;52.150;8.428;2022-12-18T02:02:51;84.33;;;35.07;;
4434;SDS011;46552;52.150;8.428;2022-12-18T02:05:20;63.73;;;31.87;;
4434;SDS011;46552;52.150;8.428;2022-12-18T02:07:56;61.23;;;32.47;;
4434;SDS011;46552;52.150;8.428;2022-12-18T02:10:33;66.07;;;33.40;;
4434;SDS011;46552;52.150;8.428;2022-12-18T02:13:09;74.00;;;32.83;;
4434;SDS011;46552;52.150;8.428;2022-12-18T02:15:44;61.67;;;31.13;;
4434;SDS011;46552;52.150;8.428;2022-12-18T02:18:18;61.63;;;30.27;;
4434;SDS011;46552;52.150;8.428;2022-12-18T02:20:49;60.30;;;29.80;;
4434;SDS011;46552;52.150;8.428;2022-12-18T02:23:24;69.83;;;31.70;;
4434;SDS011;46552;52.150;8.428;2022-12-18T02:26:09;64.67;;;32.93;;
4434;SDS011;46552;52.150;8.428;2022-12-18T02:28:45;70.93;;;32.67;;
4434;SDS011;46552;52.150;8.428;2022-12-18T02:31:17;64.50;;;29.43;;
4434;SDS011;46552;52.150;8.428;2022-12-18T02:33:49;59.37;;;29.77;;
4434;SDS011;46552;52.150;8.428;2022-12-18T02:36:19;65.63;;;30.30;;
4434;SDS011;46552;52.150;8.428;2022-12-18T02:38:48;54.00;;;28.57;;
4434;SDS011;46552;52.150;8.428;2022-12-18T02:41:19;63.00;;;29.97;;
4434;SDS011;46552;52.150;8.428;2022-12-18T02:43:48;66.50;;;31.20;;
4434;SDS011;46552;52.150;8.428;2022-12-18T02:46:27;56.33;;;28.33;;
4434;SDS011;46552;52.150;8.428;2022-12-18T02:49:00;55.70;;;27.80;;
4434;SDS011;46552;52.150;8.428;2022-12-18T02:51:35;60.10;;;29.93;;
4434;SDS011;46552;52.150;8.428;2022-12-18T02:54:13;65.80;;;29.77;;
4434;SDS011;46552;52.150;8.428;2022-12-18T02:56:50;66.40;;;30.60;;
4434;SDS011;46552;52.150;8.428;2022-12-18T02:59:23;64.40;;;30.33;;
4434;SDS011;46552;52.150;8.428;2022-12-18T03:01:57;51.20;;;26.53;;
4434;SDS011;46552;52.150;8.428;2022-12-18T03:04:30;64.10;;;27.93;;
4434;SDS011;46552;52.150;8.428;2022-12-18T03:07:01;57.17;;;28.00;;
4434;SDS011;46552;52.150;8.428;2022-12-18T03:09:32;58.63;;;28.50;;
4434;SDS011;46552;52.150;8.428;2022-12-18T03:12:07;76.77;;;29.80;;
4434;SDS011;46552;52.150;8.428;2022-12-18T03:14:50;60.20;;;29.10;;
4434;SDS011;46552;52.150;8.428;2022-12-18T03:17:22;64.53;;;30.00;;
4434;SDS011;46552;52.150;8.428;2022-12-18T03:19:52;54.93;;;28.67;;
4434;SDS011;46552;52.150;8.428;2022-12-18T03:22:24;54.57;;;27.03;;
4434;SDS011;46552;52.150;8.428;2022-12-18T03:24:56;60.67;;;27.93;;
4434;SDS011;46552;52.150;8.428;2022-12-18T03:27:26;68.33;;;30.67;;
4434;SDS011;46552;52.150;8.428;2022-12-18T03:29:56;60.57;;;28.60;;
4434;SDS011;46552;52.150;8.428;2022-12-18T03:32:33;87.17;;;29.77;;
4434;SDS011;46552;52.150;8.428;2022-12-18T03:35:06;64.70;;;28.40;;
4434;SDS011;46552;52.150;8.428;2022-12-18T03:37:36;64.97;;;30.87;;
4434;SDS011;46552;52.150;8.428;2022-12-18T03:40:05;58.50;;;29.20;;
4434;SDS011;46552;52.150;8.428;2022-12-18T03:42:37;61.60;;;28.00;;
4434;SDS011;46552;52.150;8.428;2022-12-18T03:45:11;56.90;;;30.33;;
4434;SDS011;46552;52.150;8.428;2022-12-18T03:47:46;55.80;;;26.63;;
4434;SDS011;46552;52.150;8.428;2022-12-18T03:50:25;57.90;;;28.30;;
4434;SDS011;46552;52.150;8.428;2022-12-18T03:53:05;67.20;;;28.17;;
4434;SDS011;46552;52.150;8.428;2022-12-18T03:55:40;59.10;;;27.83;;
4434;SDS011;46552;52.150;8.428;2022-12-18T03:58:11;69.17;;;30.20;;
4434;SDS011;46552;52.150;8.428;2022-12-18T04:00:42;75.17;;;31.50;;
4434;SDS011;46552;52.150;8.428;2022-12-18T04:03:10;68.17;;;30.80;;
4434;SDS011;46552;52.150;8.428;2022-12-18T04:05:40;67.37;;;30.50;;
4434;SDS011;46552;52.150;8.428;2022-12-18T04:08:09;58.53;;;27.97;;
4434;SDS011;46552;52.150;8.428;2022-12-18T04:10:36;63.70;;;27.73;;
4434;SDS011;46552;52.150;8.428;2022-12-18T04:13:04;64.43;;;30.13;;
4434;SDS011;46552;52.150;8.428;2022-12-18T04:15:32;57.30;;;30.07;;
4434;SDS011;46552;52.150;8.428;2022-12-18T04:18:01;63.90;;;29.13;;
4434;SDS011;46552;52.150;8.428;2022-12-18T04:20:29;56.90;;;28.27;;
4434;SDS011;46552;52.150;8.428;2022-12-18T04:22:56;56.37;;;27.30;;
4434;SDS011;46552;52.150;8.428;2022-12-18T04:25:25;57.53;;;27.80;;
4434;SDS011;46552;52.150;8.428;2022-12-18T04:27:52;56.73;;;27.47;;
4434;SDS011;46552;52.150;8.428;2022-12-18T04:30:21;62.93;;;28.43;;
4434;SDS011;46552;52.150;8.428;2022-12-18T04:32:50;56.37;;;27.43;;
4434;SDS011;46552;52.150;8.428;2022-12-18T04:35:18;65.73;;;27.83;;
4434;SDS011;46552;52.150;8.428;2022-12-18T04:37:45;76.17;;;28.57;;
4434;SDS011;46552;52.150;8.428;2022-12-18T04:40:12;61.25;;;26.95;;
4434;SDS011;46552;52.150;8.428;2022-12-18T04:42:40;59.80;;;28.40;;
4434;SDS011;46552;52.150;8.428;2022-12-18T04:45:08;58.13;;;27.50;;
4434;SDS011;46552;52.150;8.428;2022-12-18T04:47:36;54.43;;;26.00;;
4434;SDS011;46552;52.150;8.428;2022-12-18T04:50:05;51.00;;;27.53;;
4434;SDS011;46552;52.150;8.428;2022-12-18T04:52:34;54.37;;;26.03;;
4434;SDS011;46552;52.150;8.428;2022-12-18T04:55:02;65.33;;;25.60;;
4434;SDS011;46552;52.150;8.428;2022-12-18T04:57:29;46.77;;;23.53;;
4434;SDS011;46552;52.150;8.428;2022-12-18T04:59:57;62.60;;;28.10;;
4434;SDS011;46552;52.150;8.428;2022-12-18T05:02:24;50.03;;;25.97;;
4434;SDS011;46552;52.150;8.428;2022-12-18T05:04:51;70.17;;;27.97;;
4434;SDS011;46552;52.150;8.428;2022-12-18T05:07:19;50.33;;;26.10;;
4434;SDS011;46552;52.150;8.428;2022-12-18T05:09:47;57.63;;;26.30;;
4434;SDS011;46552;52.150;8.428;2022-12-18T05:12:14;49.43;;;23.67;;
4434;SDS011;46552;52.150;8.428;2022-12-18T05:14:41;48.53;;;24.00;;
4434;SDS011;46552;52.150;8.428;2022-12-18T05:17:08;55.80;;;26.20;;
4434;SDS011;46552;52.150;8.428;2022-12-18T05:19:35;43.80;;;24.40;;
4434;SDS011;46552;52.150;8.428;2022-12-18T05:22:03;53.17;;;25.43;;
4434;SDS011;46552;52.150;8.428;2022-12-18T05:24:32;48.90;;;24.20;;
4434;SDS011;46552;52.150;8.428;2022-12-18T05:26:58;51.77;;;23.63;;
4434;SDS011;46552;52.150;8.428;2022-12-18T05:29:26;51.50;;;24.90;;
4434;SDS011;46552;52.150;8.428;2022-12-18T05:31:53;51.67;;;24.87;;
4434;SDS011;46552;52.150;8.428;2022-12-18T05:34:20;49.23;;;23.90;;
4434;SDS011;46552;52.150;8.428;2022-12-18T05:36:47;50.40;;;22.47;;
4434;SDS011;46552;52.150;8.428;2022-12-18T05:39:15;50.87;;;25.27;;
4434;SDS011;46552;52.150;8.428;2022-12-18T05:41:45;54.37;;;25.57;;
4434;SDS011;46552;52.150;8.428;2022-12-18T05:44:12;51.63;;;25.90;;
4434;SDS011;46552;52.150;8.428;2022-12-18T05:46:39;56.80;;;29.47;;
4434;SDS011;46552;52.150;8.428;2022-12-18T05:49:08;54.17;;;27.13;;
4434;SDS011;46552;52.150;8.428;2022-12-18T05:51:35;49.20;;;24.50;;
4434;SDS011;46552;52.150;8.428;2022-12-18T05:54:02;55.20;;;26.90;;
4434;SDS011;46552;52.150;8.428;2022-12-18T05:56:30;48.53;;;23.83;;
4434;SDS011;46552;52.150;8.428;2022-12-18T05:58:59;55.00;;;25.87;;
4434;SDS011;46552;52.150;8.428;2022-12-18T06:01:26;47.63;;;26.17;;
4434;SDS011;46552;52.150;8.428;2022-12-18T06:03:53;56.33;;;24.77;;
4434;SDS011;46552;52.150;8.428;2022-12-18T06:06:22;56.50;;;24.63;;
4434;SDS011;46552;52.150;8.428;2022-12-18T06:08:51;56.30;;;24.63;;
4434;SDS011;46552;52.150;8.428;2022-12-18T06:11:19;58.17;;;25.60;;
4434;SDS011;46552;52.150;8.428;2022-12-18T06:13:49;53.53;;;25.53;;
4434;SDS011;46552;52.150;8.428;2022-12-18T06:16:18;62.17;;;27.47;;
4434;SDS011;46552;52.150;8.428;2022-12-18T06:18:45;54.30;;;26.20;;
4434;SDS011;46552;52.150;8.428;2022-12-18T06:21:12;48.30;;;23.50;;
4434;SDS011;46552;52.150;8.428;2022-12-18T06:23:39;49.33;;;24.57;;
4434;SDS011;46552;52.150;8.428;2022-12-18T06:26:07;47.37;;;23.47;;
4434;SDS011;46552;52.150;8.428;2022-12-18T06:28:40;49.97;;;21.33;;
4434;SDS011;46552;52.150;8.428;2022-12-18T06:31:08;55.97;;;24.10;;
4434;SDS011;46552;52.150;8.428;2022-12-18T06:33:37;46.27;;;21.20;;
4434;SDS011;46552;52.150;8.428;2022-12-18T06:36:05;50.80;;;22.60;;
4434;SDS011;46552;52.150;8.428;2022-12-18T06:38:34;48.57;;;23.00;;
4434;SDS011;46552;52.150;8.428;2022-12-18T06:41:05;52.63;;;24.47;;
4434;SDS011;46552;52.150;8.428;2022-12-18T06:43:33;44.70;;;22.20;;
4434;SDS011;46552;52.150;8.428;2022-12-18T06:46:00;55.33;;;23.93;;
4434;SDS011;46552;52.150;8.428;2022-12-18T06:48:28;54.17;;;22.60;;
4434;SDS011;46552;52.150;8.428;2022-12-18T06:50:56;45.93;;;23.00;;
4434;SDS011;46552;52.150;8.428;2022-12-18T06:53:24;54.33;;;22.20;;
4434;SDS011;46552;52.150;8.428;2022-12-18T06:55:51;45.03;;;22.23;;
4434;SDS011;46552;52.150;8.428;2022-12-18T06:58:18;57.10;;;24.73;;
4434;SDS011;46552;52.150;8.428;2022-12-18T07:00:45;73.63;;;31.67;;
4434;SDS011;46552;52.150;8.428;2022-12-18T07:03:12;64.60;;;31.37;;
4434;SDS011;46552;52.150;8.428;2022-12-18T07:05:39;53.63;;;26.23;;
4434;SDS011;46552;52.150;8.428;2022-12-18T07:08:08;56.60;;;23.53;;
4434;SDS011;46552;52.150;8.428;2022-12-18T07:10:40;45.13;;;21.33;;
4434;SDS011;46552;52.150;8.428;2022-12-18T07:13:07;47.93;;;25.10;;
4434;SDS011;46552;52.150;8.428;2022-12-18T07:15:34;50.07;;;25.73;;
4434;SDS011;46552;52.150;8.428;2022-12-18T07:18:01;49.73;;;24.63;;
4434;SDS011;46552;52.150;8.428;2022-12-18T07:20:29;47.90;;;22.40;;
4434;SDS011;46552;52.150;8.428;2022-12-18T07:22:56;48.67;;;23.23;;
4434;SDS011;46552;52.150;8.428;2022-12-18T07:25:24;46.33;;;22.97;;
4434;SDS011;46552;52.150;8.428;2022-12-18T07:27:51;49.60;;;21.80;;
4434;SDS011;46552;52.150;8.428;2022-12-18T07:30:18;45.63;;;23.17;;
4434;SDS011;46552;52.150;8.428;2022-12-18T07:32:45;46.10;;;24.40;;
4434;SDS011;46552;52.150;8.428;2022-12-18T07:35:12;59.10;;;24.97;;
4434;SDS011;46552;52.150;8.428;2022-12-18T07:37:40;48.07;;;21.30;;
4434;SDS011;46552;52.150;8.428;2022-12-18T07:40:08;46.10;;;20.80;;
4434;SDS011;46552;52.150;8.428;2022-12-18T07:42:38;52.60;;;25.30;;
4434;SDS011;46552;52.150;8.428;2022-12-18T07:45:05;48.67;;;25.20;;
4434;SDS011;46552;52.150;8.428;2022-12-18T07:47:35;45.83;;;23.67;;
4434;SDS011;46552;52.150;8.428;2022-12-18T07:50:03;48.87;;;23.73;;
4434;SDS011;46552;52.150;8.428;2022-12-18T07:52:31;48.83;;;24.10;;
4434;SDS011;46552;52.150;8.428;2022-12-18T07:54:58;48.70;;;23.37;;
4434;SDS011;46552;52.150;8.428;2022-12-18T07:57:25;50.20;;;22.80;;
4434;SDS011;46552;52.150;8.428;2022-12-18T07:59:54;46.40;;;22.83;;
4434;SDS011;46552;52.150;8.428;2022-12-18T08:02:21;48.90;;;20.87;;
4434;SDS011;46552;52.150;8.428;2022-12-18T08:04:49;42.87;;;22.47;;
4434;SDS011;46552;52.150;8.428;2022-12-18T08:07:17;51.43;;;25.10;;
4434;SDS011;46552;52.150;8.428;2022-12-18T08:09:44;43.97;;;23.20;;
4434;SDS011;46552;52.150;8.428;2022-12-18T08:12:11;50.03;;;24.97;;
4434;SDS011;46552;52.150;8.428;2022-12-18T08:14:40;58.07;;;25.60;;
4434;SDS011;46552;52.150;8.428;2022-12-18T08:17:09;44.67;;;22.13;;
4434;SDS011;46552;52.150;8.428;2022-12-18T08:19:36;51.10;;;23.40;;
4434;SDS011;46552;52.150;8.428;2022-12-18T08:22:03;47.57;;;22.70;;
4434;SDS011;46552;52.150;8.428;2022-12-18T08:24:30;51.40;;;23.07;;
4434;SDS011;46552;52.150;8.428;2022-12-18T08:26:57;40.33;;;19.07;;
4434;SDS011;46552;52.150;8.428;2022-12-18T08:29:24;43.03;;;19.50;;
4434;SDS011;46552;52.150;8.428;2022-12-18T08:31:51;48.57;;;19.13;;
4434;SDS011;46552;52.150;8.428;2022-12-18T08:34:21;32.40;;;16.57;;
4434;SDS011;46552;52.150;8.428;2022-12-18T08:36:48;39.50;;;18.50;;
4434;SDS011;46552;52.150;8.428;2022-12-18T08:39:16;35.97;;;16.80;;
4434;SDS011;46552;52.150;8.428;2022-12-18T08:41:43;36.60;;;17.13;;
4434;SDS011;46552;52.150;8.428;2022-12-18T08:44:30;37.37;;;18.73;;
4434;SDS011;46552;52.150;8.428;2022-12-18T08:47:06;36.77;;;19.90;;
4434;SDS011;46552;52.150;8.428;2022-12-18T08:49:36;33.23;;;18.20;;
4434;SDS011;46552;52.150;8.428;2022-12-18T08:52:03;32.57;;;18.33;;
4434;SDS011;46552;52.150;8.428;2022-12-18T08:54:31;33.73;;;19.17;;
4434;SDS011;46552;52.150;8.428;2022-12-18T08:56:59;32.90;;;18.70;;
4434;SDS011;46552;52.150;8.428;2022-12-18T08:59:28;36.60;;;19.13;;
4434;SDS011;46552;52.150;8.428;2022-12-18T09:01:55;34.90;;;20.40;;
4434;SDS011;46552;52.150;8.428;2022-12-18T09:04:22;34.90;;;19.40;;
4434;SDS011;46552;52.150;8.428;2022-12-18T09:06:50;33.17;;;19.50;;
4434;SDS011;46552;52.150;8.428;2022-12-18T09:09:17;34.70;;;17.60;;
4434;SDS011;46552;52.150;8.428;2022-12-18T09:11:44;33.77;;;19.60;;
4434;SDS011;46552;52.150;8.428;2022-12-18T09:14:11;32.47;;;18.23;;
4434;SDS011;46552;52.150;8.428;2022-12-18T09:16:38;33.90;;;18.60;;
4434;SDS011;46552;52.150;8.428;2022-12-18T09:19:05;41.80;;;21.33;;
4434;SDS011;46552;52.150;8.428;2022-12-18T09:21:34;37.50;;;19.03;;
4434;SDS011;46552;52.150;8.428;2022-12-18T09:24:08;37.03;;;17.60;;
4434;SDS011;46552;52.150;8.428;2022-12-18T09:26:39;38.67;;;19.33;;
4434;SDS011;46552;52.150;8.428;2022-12-18T09:29:06;37.13;;;18.63;;
4434;SDS011;46552;52.150;8.428;2022-12-18T09:31:35;40.10;;;19.30;;
4434;SDS011;46552;52.150;8.428;2022-12-18T09:34:06;48.90;;;23.10;;
4434;SDS011;46552;52.150;8.428;2022-12-18T09:36:33;47.73;;;22.10;;
4434;SDS011;46552;52.150;8.428;2022-12-18T09:39:00;47.43;;;22.33;;
4434;SDS011;46552;52.150;8.428;2022-12-18T09:41:36;41.73;;;20.00;;
4434;SDS011;46552;52.150;8.428;2022-12-18T09:44:22;38.27;;;19.97;;
4434;SDS011;46552;52.150;8.428;2022-12-18T09:46:58;39.60;;;18.90;;
4434;SDS011;46552;52.150;8.428;2022-12-18T09:49:38;41.00;;;19.43;;
4434;SDS011;46552;52.150;8.428;2022-12-18T09:52:13;41.60;;;19.90;;
4434;SDS011;46552;52.150;8.428;2022-12-18T09:54:44;42.23;;;22.83;;
4434;SDS011;46552;52.150;8.428;2022-12-18T09:57:17;43.37;;;21.87;;
4434;SDS011;46552;52.150;8.428;2022-12-18T09:59:48;53.43;;;24.53;;
4434;SDS011;46552;52.150;8.428;2022-12-18T10:02:19;50.97;;;27.40;;
4434;SDS011;46552;52.150;8.428;2022-12-18T10:04:49;56.43;;;25.90;;
4434;SDS011;46552;52.150;8.428;2022-12-18T10:07:25;44.40;;;25.63;;
4434;SDS011;46552;52.150;8.428;2022-12-18T10:10:06;48.30;;;25.70;;
4434;SDS011;46552;52.150;8.428;2022-12-18T10:12:42;39.73;;;23.60;;
4434;SDS011;46552;52.150;8.428;2022-12-18T10:15:19;55.43;;;27.20;;
4434;SDS011;46552;52.150;8.428;2022-12-18T10:17:51;59.67;;;31.17;;
4434;SDS011;46552;52.150;8.428;2022-12-18T10:20:24;68.03;;;34.97;;
4434;SDS011;46552;52.150;8.428;2022-12-18T10:22:57;48.93;;;29.93;;
4434;SDS011;46552;52.150;8.428;2022-12-18T10:25:31;38.80;;;23.93;;
4434;SDS011;46552;52.150;8.428;2022-12-18T10:28:10;31.87;;;22.00;;
4434;SDS011;46552;52.150;8.428;2022-12-18T10:30:39;41.23;;;24.00;;
4434;SDS011;46552;52.150;8.428;2022-12-18T10:33:09;28.77;;;18.10;;
4434;SDS011;46552;52.150;8.428;2022-12-18T10:35:38;32.17;;;19.77;;
4434;SDS011;46552;52.150;8.428;2022-12-18T10:38:20;25.60;;;16.63;;
4434;SDS011;46552;52.150;8.428;2022-12-18T10:40:50;31.97;;;18.50;;
4434;SDS011;46552;52.150;8.428;2022-12-18T10:43:22;31.43;;;19.17;;
4434;SDS011;46552;52.150;8.428;2022-12-18T10:46:00;34.37;;;18.33;;
4434;SDS011;46552;52.150;8.428;2022-12-18T10:48:30;33.40;;;18.50;;
4434;SDS011;46552;52.150;8.428;2022-12-18T10:50:58;67.43;;;34.63;;
4434;SDS011;46552;52.150;8.428;2022-12-18T10:53:27;43.73;;;24.73;;
4434;SDS011;46552;52.150;8.428;2022-12-18T10:55:57;33.87;;;21.33;;
4434;SDS011;46552;52.150;8.428;2022-12-18T10:58:30;25.40;;;13.20;;
4434;SDS011;46552;52.150;8.428;2022-12-18T11:01:03;23.37;;;14.37;;
4434;SDS011;46552;52.150;8.428;2022-12-18T11:03:33;25.50;;;15.73;;
4434;SDS011;46552;52.150;8.428;2022-12-18T11:06:03;26.57;;;17.43;;
4434;SDS011;46552;52.150;8.428;2022-12-18T11:08:32;23.03;;;14.60;;
4434;SDS011;46552;52.150;8.428;2022-12-18T11:11:01;28.73;;;16.47;;
4434;SDS011;46552;52.150;8.428;2022-12-18T11:13:30;23.73;;;13.40;;
4434;SDS011;46552;52.150;8.428;2022-12-18T11:15:57;26.00;;;12.30;;
4434;SDS011;46552;52.150;8.428;2022-12-18T11:18:27;15.70;;;10.17;;
4434;SDS011;46552;52.150;8.428;2022-12-18T11:20:56;19.70;;;11.70;;
4434;SDS011;46552;52.150;8.428;2022-12-18T11:23:26;25.63;;;13.10;;
4434;SDS011;46552;52.150;8.428;2022-12-18T11:25:54;25.00;;;11.87;;
4434;SDS011;46552;52.150;8.428;2022-12-18T11:28:28;22.03;;;11.40;;
4434;SDS011;46552;52.150;8.428;2022-12-18T11:31:09;20.13;;;10.60;;
4434;SDS011;46552;52.150;8.428;2022-12-18T11:33:47;19.00;;;10.40;;
4434;SDS011;46552;52.150;8.428;2022-12-18T11:36:28;17.00;;;9.90;;
4434;SDS011;46552;52.150;8.428;2022-12-18T11:38:59;14.47;;;7.90;;
4434;SDS011;46552;52.150;8.428;2022-12-18T11:41:38;18.70;;;10.90;;
4434;SDS011;46552;52.150;8.428;2022-12-18T11:44:30;22.10;;;10.30;;
4434;SDS011;46552;52.150;8.428;2022-12-18T11:47:03;18.50;;;10.83;;
4434;SDS011;46552;52.150;8.428;2022-12-18T11:49:36;17.43;;;8.87;;
4434;SDS011;46552;52.150;8.428;2022-12-18T11:52:08;25.63;;;11.83;;
4434;SDS011;46552;52.150;8.428;2022-12-18T11:54:41;24.10;;;11.10;;
4434;SDS011;46552;52.150;8.428;2022-12-18T11:57:10;25.37;;;11.37;;
4434;SDS011;46552;52.150;8.428;2022-12-18T11:59:50;24.47;;;12.87;;
4434;SDS011;46552;52.150;8.428;2022-12-18T12:02:32;32.23;;;15.30;;
4434;SDS011;46552;52.150;8.428;2022-12-18T12:08:06;20.57;;;9.90;;
4434;SDS011;46552;52.150;8.428;2022-12-18T12:10:42;26.87;;;9.87;;
4434;SDS011;46552;52.150;8.428;2022-12-18T12:13:23;20.87;;;9.30;;
4434;SDS011;46552;52.150;8.428;2022-12-18T12:16:09;19.70;;;10.23;;
4434;SDS011;46552;52.150;8.428;2022-12-18T12:19:00;19.93;;;10.30;;
4434;SDS011;46552;52.150;8.428;2022-12-18T12:21:39;18.83;;;10.00;;
4434;SDS011;46552;52.150;8.428;2022-12-18T12:24:13;24.33;;;12.33;;
4434;SDS011;46552;52.150;8.428;2022-12-18T12:26:56;16.47;;;9.00;;
4434;SDS011;46552;52.150;8.428;2022-12-18T12:29:30;17.43;;;9.87;;
4434;SDS011;46552;52.150;8.428;2022-12-18T12:35:08;21.23;;;9.73;;
4434;SDS011;46552;52.150;8.428;2022-12-18T12:37:46;21.70;;;9.37;;
4434;SDS011;46552;52.150;8.428;2022-12-18T12:40:26;25.97;;;10.63;;
4434;SDS011;46552;52.150;8.428;2022-12-18T12:42:56;25.33;;;10.20;;
4434;SDS011;46552;52.150;8.428;2022-12-18T12:45:40;21.80;;;9.53;;
4434;SDS011;46552;52.150;8.428;2022-12-18T12:48:13;18.53;;;9.13;;
4434;SDS011;46552;52.150;8.428;2022-12-18T12:50:46;20.50;;;9.90;;
4434;SDS011;46552;52.150;8.428;2022-12-18T12:53:19;22.93;;;10.20;;
4434;SDS011;46552;52.150;8.428;2022-12-18T12:55:52;20.77;;;10.50;;
4434;SDS011;46552;52.150;8.428;2022-12-18T12:58:23;18.10;;;9.80;;
4434;SDS011;46552;52.150;8.428;2022-12-18T13:01:01;23.93;;;9.43;;
4434;SDS011;46552;52.150;8.428;2022-12-18T13:03:49;20.87;;;9.60;;
4434;SDS011;46552;52.150;8.428;2022-12-18T13:06:24;36.90;;;12.83;;
4434;SDS011;46552;52.150;8.428;2022-12-18T13:09:00;26.67;;;11.77;;
4434;SDS011;46552;52.150;8.428;2022-12-18T13:11:32;19.33;;;9.73;;
4434;SDS011;46552;52.150;8.428;2022-12-18T13:14:20;25.83;;;11.53;;
4434;SDS011;46552;52.150;8.428;2022-12-18T13:16:50;24.37;;;11.00;;
4434;SDS011;46552;52.150;8.428;2022-12-18T13:19:25;20.90;;;9.67;;
4434;SDS011;46552;52.150;8.428;2022-12-18T13:21:53;17.80;;;9.50;;
4434;SDS011;46552;52.150;8.428;2022-12-18T13:24:23;28.60;;;11.83;;
4434;SDS011;46552;52.150;8.428;2022-12-18T13:26:54;30.03;;;11.47;;
4434;SDS011;46552;52.150;8.428;2022-12-18T13:32:18;18.60;;;8.53;;
4434;SDS011;46552;52.150;8.428;2022-12-18T13:34:48;20.40;;;10.70;;
4434;SDS011;46552;52.150;8.428;2022-12-18T13:37:43;23.77;;;9.83;;
4434;SDS011;46552;52.150;8.428;2022-12-18T13:43:24;18.23;;;9.17;;
4434;SDS011;46552;52.150;8.428;2022-12-18T13:45:59;17.00;;;9.60;;
4434;SDS011;46552;52.150;8.428;2022-12-18T13:48:32;14.60;;;8.03;;
4434;SDS011;46552;52.150;8.428;2022-12-18T13:51:04;18.80;;;8.43;;
4434;SDS011;46552;52.150;8.428;2022-12-18T13:53:35;23.63;;;9.00;;
4434;SDS011;46552;52.150;8.428;2022-12-18T13:56:06;16.33;;;9.13;;
4434;SDS011;46552;52.150;8.428;2022-12-18T13:58:33;21.50;;;8.93;;
4434;SDS011;46552;52.150;8.428;2022-12-18T14:01:00;17.90;;;9.50;;
4434;SDS011;46552;52.150;8.428;2022-12-18T14:03:29;19.60;;;10.07;;
4434;SDS011;46552;52.150;8.428;2022-12-18T14:06:01;20.20;;;9.77;;
4434;SDS011;46552;52.150;8.428;2022-12-18T14:08:35;27.33;;;9.97;;
4434;SDS011;46552;52.150;8.428;2022-12-18T14:11:05;19.33;;;9.80;;
4434;SDS011;46552;52.150;8.428;2022-12-18T14:13:34;25.67;;;12.07;;
4434;SDS011;46552;52.150;8.428;2022-12-18T14:16:06;25.30;;;12.90;;
4434;SDS011;46552;52.150;8.428;2022-12-18T14:18:38;23.10;;;13.00;;
4434;SDS011;46552;52.150;8.428;2022-12-18T14:21:17;20.17;;;11.00;;
4434;SDS011;46552;52.150;8.428;2022-12-18T14:23:48;21.33;;;11.37;;
4434;SDS011;46552;52.150;8.428;2022-12-18T14:26:29;24.90;;;12.83;;
4434;SDS011;46552;52.150;8.428;2022-12-18T14:28:59;27.87;;;13.53;;
4434;SDS011;46552;52.150;8.428;2022-12-18T14:31:28;31.37;;;13.00;;
4434;SDS011;46552;52.150;8.428;2022-12-18T14:33:57;20.37;;;10.33;;
4434;SDS011;46552;52.150;8.428;2022-12-18T14:36:26;21.03;;;10.70;;
4434;SDS011;46552;52.150;8.428;2022-12-18T14:38:55;21.30;;;11.33;;
4434;SDS011;46552;52.150;8.428;2022-12-18T14:41:24;22.30;;;10.53;;
4434;SDS011;46552;52.150;8.428;2022-12-18T14:43:53;21.60;;;10.53;;
4434;SDS011;46552;52.150;8.428;2022-12-18T14:46:28;21.27;;;10.27;;
4434;SDS011;46552;52.150;8.428;2022-12-18T14:48:59;27.17;;;13.37;;
4434;SDS011;46552;52.150;8.428;2022-12-18T14:51:30;29.70;;;12.43;;
4434;SDS011;46552;52.150;8.428;2022-12-18T14:54:00;21.00;;;11.37;;
4434;SDS011;46552;52.150;8.428;2022-12-18T14:56:29;23.83;;;9.70;;
4434;SDS011;46552;52.150;8.428;2022-12-18T14:58:59;18.17;;;9.17;;
4434;SDS011;46552;52.150;8.428;2022-12-18T15:01:29;15.10;;;8.80;;
4434;SDS011;46552;52.150;8.428;2022-12-18T15:03:59;18.27;;;8.77;;
4434;SDS011;46552;52.150;8.428;2022-12-18T15:06:33;19.43;;;11.10;;
4434;SDS011;46552;52.150;8.428;2022-12-18T15:09:03;29.17;;;21.80;;